Time;durP1;ratioP1;P1;durP2;ratioP2;P2;SDS_P1;SDS_P2;PMS_P1;PMS_P2;Temp;Humidity;BMP_temperature;BMP_pressure;BME280_temperature;BME280_humidity;BME280_pressure;Samples;Min_cycle;Max_cycle;Signal;HPM_P1;HPM_P2
2023/07/06 00:01:40;;;;;;;26.05;23.30;;;;;;;;;;5053779;28;20457;-57
2023/07/06 00:04:06;;;;;;;25.40;22.98;;;;;;;;;;5053330;28;20069;-57
2023/07/06 00:06:32;;;;;;;25.77;23.13;;;;;;;;;;5053464;28;20413;-60
2023/07/06 00:08:59;;;;;;;26.10;23.50;;;;;;;;;;5052534;28;20029;-61
2023/07/06 00:11:26;;;;;;;26.50;24.10;;;;;;;;;;5053678;28;20061;-60
2023/07/06 00:13:52;;;;;;;26.58;23.88;;;;;;;;;;5053404;28;20029;-59
2023/07/06 00:16:21;;;;;;;27.30;24.65;;;;;;;;;;5051823;28;20372;-60
2023/07/06 00:18:47;;;;;;;26.75;24.13;;;;;;;;;;5053219;28;20025;-60
2023/07/06 00:21:13;;;;;;;29.10;26.15;;;;;;;;;;5051961;28;20025;-60
2023/07/06 00:23:43;;;;;;;27.85;25.15;;;;;;;;;;5053246;28;20036;-57
2023/07/06 00:26:09;;;;;;;29.55;26.60;;;;;;;;;;5052751;28;20028;-61
2023/07/06 00:28:35;;;;;;;29.17;26.10;;;;;;;;;;5053166;28;20031;-61
2023/07/06 00:31:10;;;;;;;28.77;25.88;;;;;;;;;;5052972;28;20035;-58
2023/07/06 00:33:37;;;;;;;28.67;25.80;;;;;;;;;;5053052;28;20100;-62
2023/07/06 00:36:04;;;;;;;29.13;25.40;;;;;;;;;;5051517;28;20496;-60
2023/07/06 00:38:30;;;;;;;29.50;26.48;;;;;;;;;;5052873;28;20031;-61
2023/07/06 00:41:00;;;;;;;28.25;25.33;;;;;;;;;;5051751;28;20083;-61
2023/07/06 00:43:46;;;;;;;30.17;25.02;;;;;;;;;;5051553;28;20025;-61
2023/07/06 00:46:12;;;;;;;27.15;24.45;;;;;;;;;;5052598;28;20020;-60
2023/07/06 00:48:44;;;;;;;28.10;25.10;;;;;;;;;;5052685;28;20503;-61
2023/07/06 00:51:22;;;;;;;29.58;26.48;;;;;;;;;;5052776;28;20028;-60
2023/07/06 00:53:51;;;;;;;28.35;25.35;;;;;;;;;;5052628;28;20091;-61
2023/07/06 00:56:18;;;;;;;29.17;26.08;;;;;;;;;;5052463;28;20036;-59
2023/07/06 00:58:45;;;;;;;33.53;26.05;;;;;;;;;;5052982;28;20123;-59
2023/07/06 01:01:13;;;;;;;29.35;25.90;;;;;;;;;;5052957;28;20021;-60
2023/07/06 01:03:43;;;;;;;28.92;25.83;;;;;;;;;;5053041;28;20469;-60
2023/07/06 01:06:10;;;;;;;28.83;24.80;;;;;;;;;;5052512;28;20074;-64
2023/07/06 01:08:37;;;;;;;28.98;25.98;;;;;;;;;;5052451;28;20082;-60
2023/07/06 01:11:04;;;;;;;28.38;25.40;;;;;;;;;;5052583;28;20028;-61
2023/07/06 01:13:32;;;;;;;29.15;26.23;;;;;;;;;;5052492;28;20032;-61
2023/07/06 01:16:07;;;;;;;29.05;25.73;;;;;;;;;;5045388;28;20086;-60
2023/07/06 01:18:42;;;;;;;27.65;24.65;;;;;;;;;;5049849;28;20170;-60
2023/07/06 01:21:09;;;;;;;29.20;24.80;;;;;;;;;;5052523;28;20032;-59
2023/07/06 01:23:35;;;;;;;30.75;26.17;;;;;;;;;;5052270;28;20017;-60
2023/07/06 01:26:01;;;;;;;32.97;27.38;;;;;;;;;;5038958;28;20025;-60
2023/07/06 01:28:36;;;;;;;28.65;25.65;;;;;;;;;;5040099;28;20129;-59
2023/07/06 01:31:20;;;;;;;31.05;27.08;;;;;;;;;;5045460;28;20100;-56
2023/07/06 01:33:54;;;;;;;30.55;26.80;;;;;;;;;;5052089;28;20040;-57
2023/07/06 01:36:22;;;;;;;33.47;27.65;;;;;;;;;;5050450;28;20021;-54
2023/07/06 01:38:48;;;;;;;31.85;26.40;;;;;;;;;;5051165;28;20032;-60
2023/07/06 01:41:25;;;;;;;32.70;26.30;;;;;;;;;;5050713;28;20033;-58
2023/07/06 01:43:51;;;;;;;30.50;25.67;;;;;;;;;;5051716;28;20024;-59
2023/07/06 01:46:19;;;;;;;35.00;28.38;;;;;;;;;;5051734;28;20029;-61
2023/07/06 01:48:45;;;;;;;32.88;26.63;;;;;;;;;;5050583;28;20021;-61
2023/07/06 01:51:24;;;;;;;30.05;26.40;;;;;;;;;;5051772;28;20031;-59
2023/07/06 01:53:50;;;;;;;35.17;25.90;;;;;;;;;;5051720;28;20075;-59
2023/07/06 01:56:20;;;;;;;34.13;25.92;;;;;;;;;;5051550;28;20025;-62
2023/07/06 01:58:52;;;;;;;36.00;25.65;;;;;;;;;;5051357;28;20032;-62
2023/07/06 02:01:21;;;;;;;30.15;25.27;;;;;;;;;;5050541;28;20075;-59
2023/07/06 02:03:50;;;;;;;31.33;25.75;;;;;;;;;;5051555;28;20028;-61
2023/07/06 02:06:17;;;;;;;31.65;25.92;;;;;;;;;;5051380;28;20017;-60
2023/07/06 02:08:43;;;;;;;29.48;24.42;;;;;;;;;;5051424;28;20025;-60
2023/07/06 02:11:14;;;;;;;30.17;25.38;;;;;;;;;;5051559;28;20056;-56
2023/07/06 02:13:40;;;;;;;39.92;26.65;;;;;;;;;;5051564;28;20028;-61
2023/07/06 02:16:07;;;;;;;29.35;25.90;;;;;;;;;;5051370;28;20029;-60
2023/07/06 02:18:33;;;;;;;31.08;26.00;;;;;;;;;;5051552;28;20025;-61
2023/07/06 02:21:01;;;;;;;32.42;26.10;;;;;;;;;;5051489;28;20033;-60
2023/07/06 02:23:26;;;;;;;32.38;27.40;;;;;;;;;;5051404;28;20021;-60
2023/07/06 02:25:53;;;;;;;33.15;26.20;;;;;;;;;;5049798;28;20114;-60
2023/07/06 02:28:21;;;;;;;38.90;27.50;;;;;;;;;;5049936;28;20439;-60
2023/07/06 02:30:48;;;;;;;31.30;25.48;;;;;;;;;;5051168;28;20450;-60
2023/07/06 02:33:14;;;;;;;34.70;27.52;;;;;;;;;;5051227;28;20041;-58
2023/07/06 02:35:40;;;;;;;36.05;27.95;;;;;;;;;;5051031;28;20040;-59
2023/07/06 02:38:06;;;;;;;31.30;27.98;;;;;;;;;;5051101;28;20037;-60
2023/07/06 02:40:32;;;;;;;33.65;25.98;;;;;;;;;;5051225;28;20056;-59
2023/07/06 02:42:58;;;;;;;36.25;26.52;;;;;;;;;;5050972;28;20474;-57
2023/07/06 02:45:24;;;;;;;36.08;28.65;;;;;;;;;;5049503;28;20029;-60
2023/07/06 02:47:50;;;;;;;36.05;28.02;;;;;;;;;;5049949;28;20033;-60
2023/07/06 02:50:16;;;;;;;32.38;25.20;;;;;;;;;;5051072;28;20029;-58
2023/07/06 02:52:44;;;;;;;35.03;27.63;;;;;;;;;;5054508;28;20072;-59
2023/07/06 02:55:10;;;;;;;29.55;24.80;;;;;;;;;;5053605;28;20025;-59
2023/07/06 02:57:39;;;;;;;31.88;26.52;;;;;;;;;;5053245;28;20504;-60
2023/07/06 03:00:10;;;;;;;30.73;25.85;;;;;;;;;;5055183;28;20067;-60
2023/07/06 03:02:36;;;;;;;34.80;27.00;;;;;;;;;;5055082;28;20063;-60
2023/07/06 03:05:04;;;;;;;29.13;25.55;;;;;;;;;;5055084;28;20040;-60
2023/07/06 03:07:33;;;;;;;32.58;26.45;;;;;;;;;;5055048;28;20021;-58
2023/07/06 03:10:00;;;;;;;39.28;27.52;;;;;;;;;;5055439;28;20165;-60
2023/07/06 03:12:26;;;;;;;32.10;25.88;;;;;;;;;;5055254;28;20029;-60
2023/07/06 03:14:52;;;;;;;33.42;27.35;;;;;;;;;;5053523;28;20077;-59
2023/07/06 03:17:17;;;;;;;29.88;26.70;;;;;;;;;;5054389;28;20385;-60
2023/07/06 03:19:43;;;;;;;32.58;26.77;;;;;;;;;;5054504;28;20076;-59
2023/07/06 03:22:10;;;;;;;33.88;27.00;;;;;;;;;;5054444;28;20087;-58
2023/07/06 03:24:37;;;;;;;32.45;26.08;;;;;;;;;;5053950;28;20021;-59
2023/07/06 03:27:03;;;;;;;32.22;25.13;;;;;;;;;;5054196;28;20389;-60
2023/07/06 03:29:30;;;;;;;30.73;25.80;;;;;;;;;;5054308;28;20307;-60
2023/07/06 03:31:56;;;;;;;33.45;26.33;;;;;;;;;;5053974;28;20029;-60
2023/07/06 03:34:22;;;;;;;32.22;25.80;;;;;;;;;;5053716;28;20500;-59
2023/07/06 03:36:48;;;;;;;29.08;25.77;;;;;;;;;;5053692;28;20025;-58
2023/07/06 03:39:15;;;;;;;29.77;23.88;;;;;;;;;;5053982;28;20067;-58
2023/07/06 03:41:42;;;;;;;32.90;25.35;;;;;;;;;;5052661;28;20029;-59
2023/07/06 03:44:08;;;;;;;31.45;24.17;;;;;;;;;;5053778;28;20025;-51
2023/07/06 03:46:34;;;;;;;28.35;24.35;;;;;;;;;;5054022;28;20039;-58
2023/07/06 03:49:04;;;;;;;28.10;24.20;;;;;;;;;;5053723;28;20028;-58
2023/07/06 03:51:31;;;;;;;31.10;23.65;;;;;;;;;;5053895;28;20094;-60
2023/07/06 03:53:57;;;;;;;30.13;24.00;;;;;;;;;;5052314;28;20032;-59
2023/07/06 03:56:27;;;;;;;35.90;25.90;;;;;;;;;;5052353;28;20112;-58
2023/07/06 03:59:00;;;;;;;30.67;23.15;;;;;;;;;;5053664;28;20039;-59
2023/07/06 04:01:31;;;;;;;31.25;23.48;;;;;;;;;;5052219;28;20047;-57
2023/07/06 04:03:57;;;;;;;27.25;23.85;;;;;;;;;;5053211;28;20104;-59
2023/07/06 04:06:27;;;;;;;28.58;22.45;;;;;;;;;;5053605;28;20029;-59
2023/07/06 04:08:56;;;;;;;29.65;23.73;;;;;;;;;;5053541;28;20499;-60
2023/07/06 04:11:22;;;;;;;28.70;23.48;;;;;;;;;;5052077;28;20033;-54
2023/07/06 04:13:49;;;;;;;27.20;21.75;;;;;;;;;;5053427;28;20025;-60
2023/07/06 04:16:16;;;;;;;26.08;21.42;;;;;;;;;;5052991;28;20380;-60
2023/07/06 04:18:44;;;;;;;27.77;20.98;;;;;;;;;;5053185;28;20104;-59
2023/07/06 04:21:11;;;;;;;26.57;19.20;;;;;;;;;;5053275;28;20040;-59
2023/07/06 04:23:37;;;;;;;27.15;18.42;;;;;;;;;;5052980;28;20267;-60
2023/07/06 04:26:02;;;;;;;25.80;17.08;;;;;;;;;;5051431;28;20720;-60
2023/07/06 04:28:29;;;;;;;26.23;17.65;;;;;;;;;;5053113;28;20025;-60
2023/07/06 04:30:54;;;;;;;28.08;17.60;;;;;;;;;;5051803;28;20028;-59
2023/07/06 04:33:20;;;;;;;28.38;17.05;;;;;;;;;;5053000;28;20029;-60
2023/07/06 04:35:51;;;;;;;27.88;16.02;;;;;;;;;;5051664;28;20120;-54
2023/07/06 04:38:17;;;;;;;26.30;15.55;;;;;;;;;;5052773;28;20041;-58
2023/07/06 04:40:43;;;;;;;23.63;14.35;;;;;;;;;;5051634;28;20494;-60
2023/07/06 04:43:11;;;;;;;25.75;15.68;;;;;;;;;;5051384;28;20017;-58
2023/07/06 04:45:37;;;;;;;24.05;14.65;;;;;;;;;;5052475;28;20029;-57
2023/07/06 04:48:03;;;;;;;24.88;14.50;;;;;;;;;;5052660;28;20032;-60
2023/07/06 04:50:31;;;;;;;22.05;13.98;;;;;;;;;;5052668;28;20021;-58
2023/07/06 04:52:58;;;;;;;25.83;14.75;;;;;;;;;;5052712;28;20060;-60
2023/07/06 04:55:26;;;;;;;22.58;13.65;;;;;;;;;;5052250;28;20025;-59
2023/07/06 04:57:54;;;;;;;25.55;14.45;;;;;;;;;;5052269;28;20029;-60
2023/07/06 05:00:24;;;;;;;24.02;13.20;;;;;;;;;;5052560;28;20016;-60
2023/07/06 05:02:51;;;;;;;25.08;13.30;;;;;;;;;;5052174;28;20032;-60
2023/07/06 05:05:20;;;;;;;22.70;12.75;;;;;;;;;;5050649;28;20033;-60
2023/07/06 05:07:46;;;;;;;;;;;;;;;;;;5052655;28;20029;-60
2023/07/06 05:10:12;;;;;;;24.63;11.70;;;;;;;;;;5052215;28;19905;-61
2023/07/06 05:12:39;;;;;;;22.20;13.20;;;;;;;;;;5052163;28;20044;-59
2023/07/06 05:15:05;;;;;;;19.58;11.35;;;;;;;;;;5051276;28;20021;-62
2023/07/06 05:17:32;;;;;;;24.67;12.05;;;;;;;;;;5033791;28;20024;-56
2023/07/06 05:19:58;;;;;;;23.85;12.73;;;;;;;;;;5051951;28;20025;-61
2023/07/06 05:22:25;;;;;;;22.42;12.40;;;;;;;;;;5050576;28;20055;-61
2023/07/06 05:24:51;;;;;;;20.15;11.48;;;;;;;;;;5051820;28;20105;-60
2023/07/06 05:27:17;;;;;;;23.90;12.57;;;;;;;;;;5050507;28;20107;-61
2023/07/06 05:29:43;;;;;;;20.20;11.77;;;;;;;;;;5051550;28;20021;-60
2023/07/06 05:32:09;;;;;;;20.33;11.93;;;;;;;;;;5052072;28;20370;-61
2023/07/06 05:34:35;;;;;;;23.08;12.57;;;;;;;;;;5051597;28;20100;-61
2023/07/06 05:37:02;;;;;;;25.75;12.98;;;;;;;;;;5050281;28;20533;-59
2023/07/06 05:39:28;;;;;;;20.92;12.50;;;;;;;;;;5051463;28;20032;-64
2023/07/06 05:41:54;;;;;;;23.17;12.32;;;;;;;;;;5051759;28;20590;-60
2023/07/06 05:44:20;;;;;;;23.70;12.85;;;;;;;;;;5051631;28;20469;-61
2023/07/06 05:46:46;;;;;;;21.52;11.90;;;;;;;;;;5051436;28;20384;-60
2023/07/06 05:49:12;;;;;;;25.80;12.73;;;;;;;;;;5047346;28;20029;-59
2023/07/06 05:51:38;;;;;;;23.67;12.27;;;;;;;;;;5024207;28;20064;-60
2023/07/06 05:54:04;;;;;;;21.27;10.85;;;;;;;;;;5043292;28;20129;-60
2023/07/06 05:56:31;;;;;;;20.77;12.48;;;;;;;;;;5031233;28;20128;-60
2023/07/06 05:58:59;;;;;;;22.20;11.50;;;;;;;;;;5045119;28;20036;-56
2023/07/06 06:01:25;;;;;;;24.98;12.02;;;;;;;;;;5049907;28;20459;-55
2023/07/06 06:03:52;;;;;;;23.13;11.82;;;;;;;;;;5051070;28;20102;-57
2023/07/06 06:06:18;;;;;;;21.75;12.10;;;;;;;;;;5047928;28;20426;-55
2023/07/06 06:08:44;;;;;;;23.17;12.25;;;;;;;;;;5031003;28;20032;-56
2023/07/06 06:11:10;;;;;;;23.15;11.38;;;;;;;;;;5031304;28;20030;-51
2023/07/06 06:13:36;;;;;;;19.08;11.27;;;;;;;;;;5030917;28;20041;-54
2023/07/06 06:16:03;;;;;;;21.30;12.07;;;;;;;;;;5030960;28;20091;-54
2023/07/06 06:18:29;;;;;;;22.05;11.32;;;;;;;;;;5030938;28;20017;-55
2023/07/06 06:20:58;;;;;;;20.30;11.30;;;;;;;;;;5029760;28;20083;-55
2023/07/06 06:23:24;;;;;;;24.70;11.77;;;;;;;;;;5033823;28;20017;-53
2023/07/06 06:25:50;;;;;;;21.70;11.45;;;;;;;;;;5052490;28;20035;-55
2023/07/06 06:28:16;;;;;;;22.95;11.85;;;;;;;;;;5054790;28;20096;-56
2023/07/06 06:30:42;;;;;;;19.13;10.18;;;;;;;;;;5054907;28;20079;-56
2023/07/06 06:33:09;;;;;;;24.42;11.25;;;;;;;;;;5053608;28;20028;-58
2023/07/06 06:35:35;;;;;;;25.25;11.05;;;;;;;;;;5054832;28;20055;-55
2023/07/06 06:38:05;;;;;;;19.35;10.15;;;;;;;;;;5054605;28;20021;-56
2023/07/06 06:40:31;;;;;;;20.02;11.13;;;;;;;;;;5054723;28;20393;-58
2023/07/06 06:43:00;;;;;;;19.58;10.25;;;;;;;;;;5054841;28;20036;-55
2023/07/06 06:45:27;;;;;;;19.02;10.98;;;;;;;;;;5054335;28;20021;-54
2023/07/06 06:47:53;;;;;;;18.33;10.00;;;;;;;;;;5054642;28;20375;-56
2023/07/06 06:50:19;;;;;;;22.55;11.52;;;;;;;;;;5053178;28;20091;-54
2023/07/06 06:52:46;;;;;;;23.02;11.23;;;;;;;;;;5054313;28;20396;-54
2023/07/06 06:55:12;;;;;;;19.88;10.13;;;;;;;;;;5036094;28;20033;-56
2023/07/06 06:57:38;;;;;;;20.85;10.15;;;;;;;;;;5054244;28;20029;-57
2023/07/06 07:00:06;;;;;;;19.70;10.52;;;;;;;;;;5036836;28;20436;-57
2023/07/06 07:02:32;;;;;;;20.63;10.48;;;;;;;;;;5054649;28;20017;-58
2023/07/06 07:05:00;;;;;;;22.42;10.45;;;;;;;;;;5053913;28;20083;-54
2023/07/06 07:07:26;;;;;;;22.30;10.53;;;;;;;;;;5054209;28;20039;-53
2023/07/06 07:09:52;;;;;;;20.48;10.95;;;;;;;;;;5036524;28;20263;-56
2023/07/06 07:12:18;;;;;;;24.40;11.10;;;;;;;;;;5036260;28;20473;-56
2023/07/06 07:14:45;;;;;;;20.35;10.77;;;;;;;;;;5053522;28;20029;-55
2023/07/06 07:17:12;;;;;;;25.13;12.00;;;;;;;;;;5052586;28;20389;-54
2023/07/06 07:19:39;;;;;;;22.67;11.45;;;;;;;;;;5035976;28;20022;-56
2023/07/06 07:22:06;;;;;;;22.30;10.63;;;;;;;;;;5036562;28;20382;-56
2023/07/06 07:24:32;;;;;;;22.95;10.30;;;;;;;;;;5039554;28;20112;-53
2023/07/06 07:26:58;;;;;;;20.80;9.90;;;;;;;;;;5037400;28;20032;-52
2023/07/06 07:29:24;;;;;;;22.25;11.38;;;;;;;;;;5050283;28;20036;-55
2023/07/06 07:31:51;;;;;;;23.77;10.98;;;;;;;;;;5052535;28;20052;-60
2023/07/06 07:34:17;;;;;;;21.42;10.50;;;;;;;;;;5052339;28;20036;-56
2023/07/06 07:36:44;;;;;;;21.58;10.73;;;;;;;;;;5051349;28;20029;-56
2023/07/06 07:39:10;;;;;;;19.33;10.52;;;;;;;;;;5053667;28;20392;-56
2023/07/06 07:41:36;;;;;;;20.90;11.07;;;;;;;;;;5053829;28;20489;-55
2023/07/06 07:44:02;;;;;;;22.85;10.23;;;;;;;;;;5048688;28;20033;-59
2023/07/06 07:46:29;;;;;;;22.80;10.48;;;;;;;;;;5042118;28;20112;-57
2023/07/06 07:48:56;;;;;;;21.08;10.70;;;;;;;;;;5052650;28;20411;-57
2023/07/06 07:51:23;;;;;;;23.90;11.32;;;;;;;;;;5053623;28;20492;-57
2023/07/06 07:53:53;;;;;;;20.08;10.18;;;;;;;;;;5053500;28;20049;-53
2023/07/06 07:56:19;;;;;;;21.48;10.93;;;;;;;;;;5053302;28;20032;-58
2023/07/06 07:58:48;;;;;;;20.58;11.32;;;;;;;;;;5053415;28;20021;-59
2023/07/06 08:01:15;;;;;;;22.60;10.65;;;;;;;;;;5053449;28;20033;-57
2023/07/06 08:03:41;;;;;;;19.33;9.82;;;;;;;;;;5053300;28;20029;-57
2023/07/06 08:06:08;;;;;;;25.45;9.88;;;;;;;;;;5035049;28;20032;-59
2023/07/06 08:08:36;;;;;;;22.55;10.82;;;;;;;;;;5053176;28;20125;-57
2023/07/06 08:11:14;;;;;;;20.02;10.30;;;;;;;;;;5035003;28;20035;-58
2023/07/06 08:13:41;;;;;;;19.52;9.70;;;;;;;;;;5052982;28;20025;-58
2023/07/06 08:16:07;;;;;;;19.88;9.48;;;;;;;;;;5052745;28;20050;-54
2023/07/06 08:18:34;;;;;;;20.10;9.77;;;;;;;;;;5052872;28;20024;-57
2023/07/06 08:21:00;;;;;;;23.05;10.43;;;;;;;;;;5052874;28;20143;-57
2023/07/06 08:23:28;;;;;;;21.42;10.45;;;;;;;;;;5048868;28;20493;-58
2023/07/06 08:25:54;;;;;;;20.15;10.07;;;;;;;;;;5051814;28;20040;-58
2023/07/06 08:28:21;;;;;;;20.17;9.18;;;;;;;;;;5045049;28;20025;-56
2023/07/06 08:30:49;;;;;;;25.42;9.10;;;;;;;;;;5046971;28;20029;-57
2023/07/06 08:33:15;;;;;;;19.85;9.57;;;;;;;;;;5036688;28;20511;-59
2023/07/06 08:35:42;;;;;;;21.10;10.23;;;;;;;;;;5038790;28;20021;-56
2023/07/06 08:38:08;;;;;;;18.85;10.05;;;;;;;;;;5046382;28;20033;-57
2023/07/06 08:40:35;;;;;;;21.67;10.07;;;;;;;;;;5052461;28;20028;-60
2023/07/06 08:43:03;;;;;;;19.02;9.05;;;;;;;;;;5052511;28;20025;-58
2023/07/06 08:45:40;;;;;;;21.05;10.40;;;;;;;;;;5052031;28;20017;-60
2023/07/06 08:48:07;;;;;;;20.88;10.57;;;;;;;;;;5051960;28;20135;-55
2023/07/06 08:50:36;;;;;;;18.42;9.20;;;;;;;;;;5050874;28;20029;-56
2023/07/06 08:53:05;;;;;;;18.08;8.85;;;;;;;;;;5032828;28;20096;-58
2023/07/06 08:55:31;;;;;;;;;;;;;;;;;;5039623;28;20025;-56
2023/07/06 08:57:57;;;;;;;20.02;9.32;;;;;;;;;;5030548;28;19923;-59
2023/07/06 09:00:25;;;;;;;19.10;8.90;;;;;;;;;;5030040;28;20025;-60
2023/07/06 09:03:06;;;;;;;19.15;11.05;;;;;;;;;;5028915;28;20021;-54
2023/07/06 09:05:33;;;;;;;18.55;9.73;;;;;;;;;;5028417;28;20276;-57
2023/07/06 09:08:00;;;;;;;19.65;10.07;;;;;;;;;;5028552;28;20041;-60
2023/07/06 09:10:28;;;;;;;17.55;9.88;;;;;;;;;;5028936;28;20118;-59
2023/07/06 09:12:56;;;;;;;18.67;10.00;;;;;;;;;;5031932;28;20057;-58
2023/07/06 09:15:30;;;;;;;18.08;9.80;;;;;;;;;;5038464;28;20064;-56
2023/07/06 09:17:59;;;;;;;19.23;10.32;;;;;;;;;;5030174;28;20030;-56
2023/07/06 09:20:26;;;;;;;18.02;9.68;;;;;;;;;;5032177;28;20014;-57
2023/07/06 09:22:53;;;;;;;18.60;10.65;;;;;;;;;;5042926;28;20033;-59
2023/07/06 09:25:26;;;;;;;21.15;10.60;;;;;;;;;;5035060;28;20385;-58
2023/07/06 09:27:55;;;;;;;22.05;10.35;;;;;;;;;;5029836;28;20436;-59
2023/07/06 09:30:29;;;;;;;19.83;10.38;;;;;;;;;;5029933;28;20113;-60
2023/07/06 09:33:03;;;;;;;20.25;10.40;;;;;;;;;;5029845;28;20141;-57
2023/07/06 09:35:29;;;;;;;20.55;11.35;;;;;;;;;;5029449;28;20034;-58
2023/07/06 09:37:55;;;;;;;18.40;10.65;;;;;;;;;;5029758;28;20107;-54
2023/07/06 09:40:28;;;;;;;18.80;10.15;;;;;;;;;;5030003;28;20088;-57
2023/07/06 09:42:54;;;;;;;19.83;11.30;;;;;;;;;;5031273;28;20394;-59
2023/07/06 09:45:27;;;;;;;20.20;11.07;;;;;;;;;;5031411;28;20029;-58
2023/07/06 09:47:56;;;;;;;19.10;10.70;;;;;;;;;;5031628;28;20547;-60
2023/07/06 09:50:24;;;;;;;19.15;10.25;;;;;;;;;;5030312;28;20060;-58
2023/07/06 09:52:50;;;;;;;20.40;11.18;;;;;;;;;;5031335;28;20100;-55
2023/07/06 09:55:29;;;;;;;17.85;10.85;;;;;;;;;;5030971;28;20060;-61
2023/07/06 09:57:55;;;;;;;19.73;10.68;;;;;;;;;;5031050;28;20045;-56
2023/07/06 10:00:23;;;;;;;19.05;11.02;;;;;;;;;;5029465;28;20120;-56
2023/07/06 10:03:01;;;;;;;20.15;10.52;;;;;;;;;;5031434;28;20061;-61
2023/07/06 10:05:51;;;;;;;24.65;10.88;;;;;;;;;;5030871;28;20033;-53
2023/07/06 10:08:34;;;;;;;19.38;11.52;;;;;;;;;;5031035;28;20113;-59
2023/07/06 10:11:01;;;;;;;20.63;12.25;;;;;;;;;;5030976;28;20098;-58
2023/07/06 10:13:47;;;;;;;17.70;11.20;;;;;;;;;;5031280;28;20585;-59
2023/07/06 10:16:28;;;;;;;21.20;12.75;;;;;;;;;;5030215;28;20135;-57
2023/07/06 10:19:13;;;;;;;18.73;11.63;;;;;;;;;;5031265;28;20029;-61
2023/07/06 10:21:54;;;;;;;17.95;11.45;;;;;;;;;;5030854;28;20017;-52
2023/07/06 10:24:32;;;;;;;20.90;12.52;;;;;;;;;;5030554;28;20101;-59
2023/07/06 10:27:01;;;;;;;21.60;12.30;;;;;;;;;;5031068;28;20029;-58
2023/07/06 10:29:47;;;;;;;19.40;11.82;;;;;;;;;;5030992;28;20037;-58
2023/07/06 10:32:25;;;;;;;19.33;12.07;;;;;;;;;;5030881;28;20104;-56
2023/07/06 10:34:58;;;;;;;20.95;12.00;;;;;;;;;;5029384;28;20116;-58
2023/07/06 10:37:27;;;;;;;24.05;12.60;;;;;;;;;;5028838;28;20139;-60
2023/07/06 10:40:04;;;;;;;17.40;12.40;;;;;;;;;;5041221;28;20025;-54
2023/07/06 10:42:35;;;;;;;20.30;12.65;;;;;;;;;;5047789;28;20032;-57
2023/07/06 10:45:05;;;;;;;19.45;12.45;;;;;;;;;;5036095;28;20048;-57
2023/07/06 10:47:34;;;;;;;20.90;12.32;;;;;;;;;;5047765;28;20049;-57
2023/07/06 10:50:08;;;;;;;17.48;11.80;;;;;;;;;;5049252;28;20079;-55
2023/07/06 10:52:44;;;;;;;18.58;11.85;;;;;;;;;;5040162;28;20032;-55
2023/07/06 10:55:23;;;;;;;19.17;12.18;;;;;;;;;;5042502;28;20069;-56
2023/07/06 10:58:09;;;;;;;19.23;11.90;;;;;;;;;;5035501;28;20401;-54
2023/07/06 11:00:38;;;;;;;19.67;12.10;;;;;;;;;;5048094;28;20397;-53
2023/07/06 11:03:08;;;;;;;18.85;12.23;;;;;;;;;;5051386;28;20400;-54
2023/07/06 11:05:36;;;;;;;20.77;12.35;;;;;;;;;;5050175;28;20059;-55
2023/07/06 11:08:10;;;;;;;16.95;11.40;;;;;;;;;;5046917;28;20208;-55
2023/07/06 11:10:39;;;;;;;17.60;11.63;;;;;;;;;;5031595;28;20037;-56
2023/07/06 11:13:05;;;;;;;17.48;11.88;;;;;;;;;;5048429;28;20428;-52
2023/07/06 11:15:43;;;;;;;16.55;11.75;;;;;;;;;;5053706;28;20134;-56
2023/07/06 11:18:12;;;;;;;17.20;12.07;;;;;;;;;;5054368;28;20021;-53
2023/07/06 11:20:38;;;;;;;17.45;11.90;;;;;;;;;;5054095;28;20036;-59
2023/07/06 11:23:04;;;;;;;17.63;11.50;;;;;;;;;;5054457;28;20382;-58
2023/07/06 11:25:31;;;;;;;17.92;12.13;;;;;;;;;;5053498;28;20040;-59
2023/07/06 11:28:01;;;;;;;19.30;12.05;;;;;;;;;;5053426;28;20032;-54
2023/07/06 11:30:31;;;;;;;15.90;11.60;;;;;;;;;;5053819;28;20041;-60
2023/07/06 11:33:06;;;;;;;19.33;12.05;;;;;;;;;;5052356;28;20102;-56
2023/07/06 11:35:41;;;;;;;16.88;11.82;;;;;;;;;;5052814;28;20453;-59
2023/07/06 11:38:09;;;;;;;17.98;11.68;;;;;;;;;;5053330;28;20021;-61
2023/07/06 11:40:47;;;;;;;18.23;11.93;;;;;;;;;;5053580;28;20082;-66
2023/07/06 11:43:25;;;;;;;18.55;11.85;;;;;;;;;;5053526;28;20017;-55
2023/07/06 11:45:54;;;;;;;18.40;12.00;;;;;;;;;;5052894;28;20516;-51
2023/07/06 11:48:26;;;;;;;15.75;11.32;;;;;;;;;;5053407;28;20025;-50
2023/07/06 11:50:54;;;;;;;19.27;12.13;;;;;;;;;;5052981;28;20065;-51
2023/07/06 11:53:42;;;;;;;17.70;12.40;;;;;;;;;;5053116;28;20059;-54
2023/07/06 11:56:18;;;;;;;;;;;;;;;;;;5035490;28;20028;-55
2023/07/06 11:58:56;;;;;;;17.40;12.40;;;;;;;;;;5054297;28;19919;-51
2023/07/06 12:01:42;;;;;;;18.40;12.43;;;;;;;;;;5052615;28;20029;-55
2023/07/06 12:04:20;;;;;;;17.33;12.10;;;;;;;;;;5052811;28;20175;-54
2023/07/06 12:06:48;;;;;;;18.02;12.52;;;;;;;;;;5052735;28;20123;-56
2023/07/06 12:09:22;;;;;;;16.80;12.20;;;;;;;;;;5053306;28;20022;-52
2023/07/06 12:12:06;;;;;;;20.45;12.63;;;;;;;;;;5052952;28;20278;-55
2023/07/06 12:14:34;;;;;;;17.40;12.32;;;;;;;;;;5052410;28;20029;-53
2023/07/06 12:17:01;;;;;;;18.13;13.10;;;;;;;;;;5052744;28;20078;-57
2023/07/06 12:19:28;;;;;;;16.92;12.77;;;;;;;;;;5052933;28;20052;-52
2023/07/06 12:21:55;;;;;;;18.70;13.80;;;;;;;;;;5052854;28;20064;-54
2023/07/06 12:24:22;;;;;;;16.88;13.15;;;;;;;;;;5052454;28;20025;-52
2023/07/06 12:26:50;;;;;;;17.58;13.32;;;;;;;;;;5034982;28;20049;-52
2023/07/06 12:29:17;;;;;;;18.53;13.27;;;;;;;;;;5052372;28;20366;-50
2023/07/06 12:31:47;;;;;;;17.35;12.77;;;;;;;;;;5042418;28;20025;-56
2023/07/06 12:34:17;;;;;;;18.30;13.70;;;;;;;;;;5050926;28;20021;-55
2023/07/06 12:36:43;;;;;;;18.83;12.88;;;;;;;;;;5036015;28;20101;-56
2023/07/06 12:39:13;;;;;;;19.13;13.40;;;;;;;;;;5052456;28;20017;-56
2023/07/06 12:41:39;;;;;;;16.75;13.20;;;;;;;;;;5052286;28;20025;-54
2023/07/06 12:44:07;;;;;;;18.27;13.55;;;;;;;;;;5050886;28;20393;-54
2023/07/06 12:46:34;;;;;;;18.95;13.27;;;;;;;;;;5052500;28;20499;-55
2023/07/06 12:49:10;;;;;;;19.15;13.85;;;;;;;;;;5052380;28;20025;-54
2023/07/06 12:51:40;;;;;;;16.75;12.93;;;;;;;;;;5041111;28;20021;-50
2023/07/06 12:54:06;;;;;;;18.00;12.60;;;;;;;;;;5032768;28;20473;-57
2023/07/06 12:56:33;;;;;;;17.15;12.98;;;;;;;;;;5032135;28;20046;-55
2023/07/06 12:59:01;;;;;;;18.88;13.18;;;;;;;;;;5032423;28;20037;-54
2023/07/06 13:01:32;;;;;;;18.48;12.70;;;;;;;;;;5032291;28;20021;-55
2023/07/06 13:04:08;;;;;;;19.73;12.70;;;;;;;;;;5031995;28;20393;-55
2023/07/06 13:06:41;;;;;;;18.73;12.60;;;;;;;;;;5032164;28;20030;-55
2023/07/06 13:09:07;;;;;;;18.92;12.90;;;;;;;;;;5032283;28;20196;-53
2023/07/06 13:11:37;;;;;;;18.75;12.50;;;;;;;;;;5031781;28;20184;-55
2023/07/06 13:14:03;;;;;;;17.27;12.30;;;;;;;;;;5031770;28;20032;-59
2023/07/06 13:16:38;;;;;;;17.38;12.07;;;;;;;;;;5032341;28;20373;-55
2023/07/06 13:19:04;;;;;;;19.98;12.52;;;;;;;;;;5034639;28;20026;-56
2023/07/06 13:21:33;;;;;;;17.45;12.32;;;;;;;;;;5043087;28;20124;-55
2023/07/06 13:23:59;;;;;;;18.70;12.95;;;;;;;;;;5040731;28;20051;-57
2023/07/06 13:26:26;;;;;;;16.40;12.30;;;;;;;;;;5051097;28;20485;-56
2023/07/06 13:28:55;;;;;;;16.85;12.80;;;;;;;;;;5051819;28;20048;-56
2023/07/06 13:31:23;;;;;;;19.27;13.82;;;;;;;;;;5051687;28;20111;-54
2023/07/06 13:33:49;;;;;;;15.95;11.98;;;;;;;;;;5051737;28;20025;-56
2023/07/06 13:36:18;;;;;;;16.77;12.77;;;;;;;;;;5051087;28;20025;-58
2023/07/06 13:38:46;;;;;;;16.85;12.88;;;;;;;;;;5051610;28;20032;-56
2023/07/06 13:41:19;;;;;;;16.60;13.18;;;;;;;;;;5051626;28;20020;-57
2023/07/06 13:43:46;;;;;;;18.00;12.85;;;;;;;;;;5050084;28;20090;-56
2023/07/06 13:46:12;;;;;;;16.98;13.20;;;;;;;;;;5051175;28;20381;-58
2023/07/06 13:48:39;;;;;;;18.25;13.40;;;;;;;;;;5050990;28;20028;-56
2023/07/06 13:51:06;;;;;;;18.00;13.43;;;;;;;;;;5050999;28;20041;-54
2023/07/06 13:53:32;;;;;;;17.42;13.70;;;;;;;;;;5051150;28;20025;-54
2023/07/06 13:55:59;;;;;;;17.15;13.20;;;;;;;;;;5049999;28;20397;-58
2023/07/06 13:58:26;;;;;;;17.23;14.25;;;;;;;;;;5050351;28;20555;-51
2023/07/06 14:00:52;;;;;;;16.88;13.90;;;;;;;;;;5051116;28;20048;-52
2023/07/06 14:03:19;;;;;;;17.48;13.50;;;;;;;;;;5051038;28;20116;-52
2023/07/06 14:05:45;;;;;;;16.88;13.98;;;;;;;;;;5032303;28;20016;-57
2023/07/06 14:08:12;;;;;;;17.38;13.95;;;;;;;;;;5050891;28;20488;-56
2023/07/06 14:10:38;;;;;;;17.38;14.15;;;;;;;;;;5050631;28;20048;-56
2023/07/06 14:13:05;;;;;;;17.00;13.60;;;;;;;;;;5050710;28;20070;-52
2023/07/06 14:15:31;;;;;;;16.75;13.95;;;;;;;;;;5050337;28;20523;-54
2023/07/06 14:17:57;;;;;;;16.75;13.45;;;;;;;;;;5050482;28;20037;-57
2023/07/06 14:20:24;;;;;;;17.60;13.95;;;;;;;;;;5049060;28;20017;-56
2023/07/06 14:22:52;;;;;;;17.20;13.88;;;;;;;;;;5031024;28;20025;-57
2023/07/06 14:25:19;;;;;;;16.50;13.63;;;;;;;;;;5030085;28;20030;-57
2023/07/06 14:27:45;;;;;;;17.77;14.32;;;;;;;;;;5030743;28;20035;-55